map of LOO home
Great Circle Mapper logo
LOO - Airport
Location
City:  Laghouat, Algeria
ICAO / IATA:DAUL / LOO

Details
Type:Airport (Aerodrome, Airfield)
Use:Military
Latitude:3345'52"N (33.764383)
Longitude:255'42"E (2.928344)
Datum:WGS 1984
Elevation:2510 ft (765 m)
Runways:2
Longest:12486 × 148 ft (3806 × 45 m), paved

Time
Time Zone:UTC+1
Local Time:

Weather
METAR:DAUL 211200Z 16018KT 9999 FEW033 25/M00 Q1007

Related Locations
Nearby:
Farthest:NZOP: 12006 mi / 19322 km
Opotiki, NZ

Find:

   beyond  
but within

Other Information
Maps:
NOTAMs:
Links:
Sources:

  
flag of Algeria   

Sectional Chart

Flight Planning
at skyvector.com

Satellite Image

Google Maps Satellite View

 

Copyright © 2004-2014 Karl L. Swartz. All rights reserved.
The Great Circle Mapper name and logo are trademarks of the Great Circle Mapper.
All other trademarks mentioned herein belong to their respective owners.
Please see credits for attibutions and further copyright information.

  Follow gcmap on Facebook Follow gcmap on Twitter

hCard Microformat

Geo Microformat